sensor_id;sensor_type;location;lat;lon;timestamp;pressure;altitude;pressure_sealevel;temperature;humidity
6413;BME280;3239;48.714;9.472;2023-01-01T00:01:14;98987.94;;;8.38;100.00
6413;BME280;3239;48.714;9.472;2023-01-01T00:03:40;99002.72;;;8.62;100.00
6413;BME280;3239;48.714;9.472;2023-01-01T00:06:12;99012.38;;;8.58;100.00
6413;BME280;3239;48.714;9.472;2023-01-01T00:08:39;99005.16;;;8.55;100.00
6413;BME280;3239;48.714;9.472;2023-01-01T00:11:07;99008.34;;;8.42;100.00
6413;BME280;3239;48.714;9.472;2023-01-01T00:13:35;99004.84;;;8.42;100.00
6413;BME280;3239;48.714;9.472;2023-01-01T00:16:13;99021.47;;;8.38;100.00
6413;BME280;3239;48.714;9.472;2023-01-01T00:18:39;99029.63;;;8.33;100.00
6413;BME280;3239;48.714;9.472;2023-01-01T00:21:10;99038.34;;;8.37;100.00
6413;BME280;3239;48.714;9.472;2023-01-01T00:23:36;99038.59;;;8.39;100.00
6413;BME280;3239;48.714;9.472;2023-01-01T00:26:13;99052.53;;;8.41;100.00
6413;BME280;3239;48.714;9.472;2023-01-01T00:28:39;99045.28;;;8.38;100.00
6413;BME280;3239;48.714;9.472;2023-01-01T00:31:14;99046.91;;;8.19;100.00
6413;BME280;3239;48.714;9.472;2023-01-01T00:33:42;99044.16;;;8.19;100.00
6413;BME280;3239;48.714;9.472;2023-01-01T00:36:13;99049.66;;;8.24;100.00
6413;BME280;3239;48.714;9.472;2023-01-01T00:38:42;99041.25;;;8.28;100.00
6413;BME280;3239;48.714;9.472;2023-01-01T00:41:08;99041.44;;;8.19;100.00
6413;BME280;3239;48.714;9.472;2023-01-01T00:43:35;99049.19;;;8.26;100.00
6413;BME280;3239;48.714;9.472;2023-01-01T00:46:01;99039.81;;;8.32;100.00
6413;BME280;3239;48.714;9.472;2023-01-01T00:48:27;99033.13;;;8.39;100.00
6413;BME280;3239;48.714;9.472;2023-01-01T00:50:53;99040.41;;;8.47;100.00
6413;BME280;3239;48.714;9.472;2023-01-01T00:53:20;99040.88;;;8.46;100.00
6413;BME280;3239;48.714;9.472;2023-01-01T00:55:48;99041.13;;;8.42;100.00
6413;BME280;3239;48.714;9.472;2023-01-01T00:58:15;99029.56;;;8.22;100.00
6413;BME280;3239;48.714;9.472;2023-01-01T01:00:41;99035.00;;;8.22;100.00
6413;BME280;3239;48.714;9.472;2023-01-01T01:03:10;99021.19;;;8.00;100.00
6413;BME280;3239;48.714;9.472;2023-01-01T01:06:06;99021.66;;;7.93;100.00
6413;BME280;3239;48.714;9.472;2023-01-01T01:08:36;99020.25;;;8.03;100.00
6413;BME280;3239;48.714;9.472;2023-01-01T01:13:29;99026.78;;;8.16;100.00
6413;BME280;3239;48.714;9.472;2023-01-01T01:15:55;99025.19;;;8.04;100.00
6413;BME280;3239;48.714;9.472;2023-01-01T01:18:21;99013.84;;;8.11;100.00
6413;BME280;3239;48.714;9.472;2023-01-01T01:20:52;99019.53;;;8.08;100.00
6413;BME280;3239;48.714;9.472;2023-01-01T01:23:19;99016.53;;;8.06;100.00
6413;BME280;3239;48.714;9.472;2023-01-01T01:25:45;99009.81;;;8.07;100.00
6413;BME280;3239;48.714;9.472;2023-01-01T01:28:11;99006.00;;;7.93;100.00
6413;BME280;3239;48.714;9.472;2023-01-01T01:30:38;99016.19;;;7.93;100.00
6413;BME280;3239;48.714;9.472;2023-01-01T01:33:04;99012.25;;;7.99;100.00
6413;BME280;3239;48.714;9.472;2023-01-01T01:35:30;99011.44;;;7.88;100.00
6413;BME280;3239;48.714;9.472;2023-01-01T01:37:58;99014.44;;;7.90;100.00
6413;BME280;3239;48.714;9.472;2023-01-01T01:40:24;99018.56;;;7.80;100.00
6413;BME280;3239;48.714;9.472;2023-01-01T01:42:50;99024.84;;;7.91;100.00
6413;BME280;3239;48.714;9.472;2023-01-01T01:45:17;99032.56;;;7.93;100.00
6413;BME280;3239;48.714;9.472;2023-01-01T01:47:57;99039.75;;;7.96;100.00
6413;BME280;3239;48.714;9.472;2023-01-01T01:50:40;99031.84;;;7.98;100.00
6413;BME280;3239;48.714;9.472;2023-01-01T01:53:24;99020.97;;;8.03;100.00
6413;BME280;3239;48.714;9.472;2023-01-01T01:55:55;99028.16;;;8.01;100.00
6413;BME280;3239;48.714;9.472;2023-01-01T01:58:22;99016.97;;;7.99;100.00
6413;BME280;3239;48.714;9.472;2023-01-01T02:00:49;99015.91;;;7.91;100.00
6413;BME280;3239;48.714;9.472;2023-01-01T02:03:19;99011.66;;;7.84;100.00
6413;BME280;3239;48.714;9.472;2023-01-01T02:05:48;99010.59;;;7.76;100.00
6413;BME280;3239;48.714;9.472;2023-01-01T02:08:15;99007.09;;;7.70;100.00
6413;BME280;3239;48.714;9.472;2023-01-01T02:10:42;99020.25;;;7.72;100.00
6413;BME280;3239;48.714;9.472;2023-01-01T02:13:08;99022.66;;;7.64;100.00
6413;BME280;3239;48.714;9.472;2023-01-01T02:19:28;99025.84;;;7.57;100.00
6413;BME280;3239;48.714;9.472;2023-01-01T02:22:20;99026.56;;;7.58;100.00
6413;BME280;3239;48.714;9.472;2023-01-01T02:30:29;99029.06;;;7.61;100.00
6413;BME280;3239;48.714;9.472;2023-01-01T02:33:03;99033.81;;;7.66;100.00
6413;BME280;3239;48.714;9.472;2023-01-01T02:35:41;99046.75;;;8.02;100.00
6413;BME280;3239;48.714;9.472;2023-01-01T02:38:22;99048.19;;;7.92;100.00
6413;BME280;3239;48.714;9.472;2023-01-01T02:41:03;99047.38;;;8.17;100.00
6413;BME280;3239;48.714;9.472;2023-01-01T02:43:30;99072.53;;;8.69;100.00
6413;BME280;3239;48.714;9.472;2023-01-01T02:45:56;99076.94;;;9.08;100.00
6413;BME280;3239;48.714;9.472;2023-01-01T02:48:43;99069.34;;;9.56;100.00
6413;BME280;3239;48.714;9.472;2023-01-01T02:51:58;99052.47;;;9.74;100.00
6413;BME280;3239;48.714;9.472;2023-01-01T02:54:57;99005.13;;;9.08;100.00
6413;BME280;3239;48.714;9.472;2023-01-01T02:57:47;98992.75;;;9.29;100.00
6413;BME280;3239;48.714;9.472;2023-01-01T03:00:17;98978.31;;;9.72;100.00
6413;BME280;3239;48.714;9.472;2023-01-01T03:05:55;98944.69;;;10.16;100.00
6413;BME280;3239;48.714;9.472;2023-01-01T03:11:45;98883.59;;;9.47;100.00
6413;BME280;3239;48.714;9.472;2023-01-01T03:19:53;98863.03;;;10.20;100.00
6413;BME280;3239;48.714;9.472;2023-01-01T03:22:33;98856.31;;;10.15;100.00
6413;BME280;3239;48.714;9.472;2023-01-01T03:25:08;98829.09;;;9.60;100.00
6413;BME280;3239;48.714;9.472;2023-01-01T03:27:59;98817.66;;;9.56;100.00
6413;BME280;3239;48.714;9.472;2023-01-01T03:30:28;98816.66;;;9.65;100.00
6413;BME280;3239;48.714;9.472;2023-01-01T03:33:02;98823.09;;;9.67;100.00
6413;BME280;3239;48.714;9.472;2023-01-01T03:38:30;98810.50;;;9.37;100.00
6413;BME280;3239;48.714;9.472;2023-01-01T03:44:21;98823.22;;;9.01;100.00
6413;BME280;3239;48.714;9.472;2023-01-01T03:46:49;98833.16;;;9.21;100.00
6413;BME280;3239;48.714;9.472;2023-01-01T03:49:15;98857.22;;;9.39;100.00
6413;BME280;3239;48.714;9.472;2023-01-01T03:52:42;98841.34;;;8.88;100.00
6413;BME280;3239;48.714;9.472;2023-01-01T03:55:40;98853.75;;;9.22;100.00
6413;BME280;3239;48.714;9.472;2023-01-01T04:01:55;98855.50;;;8.86;100.00
6413;BME280;3239;48.714;9.472;2023-01-01T04:04:03;98858.97;;;8.81;100.00
6413;BME280;3239;48.714;9.472;2023-01-01T04:06:32;98865.69;;;8.91;100.00
6413;BME280;3239;48.714;9.472;2023-01-01T04:08:58;98866.94;;;8.90;100.00
6413;BME280;3239;48.714;9.472;2023-01-01T04:11:30;98870.94;;;9.00;100.00
6413;BME280;3239;48.714;9.472;2023-01-01T04:14:38;98884.84;;;9.24;100.00
6413;BME280;3239;48.714;9.472;2023-01-01T04:17:07;98869.03;;;8.26;100.00
6413;BME280;3239;48.714;9.472;2023-01-01T04:19:34;98845.88;;;8.10;100.00
6413;BME280;3239;48.714;9.472;2023-01-01T04:22:01;98875.81;;;8.52;100.00
6413;BME280;3239;48.714;9.472;2023-01-01T04:24:27;98882.78;;;8.64;100.00
6413;BME280;3239;48.714;9.472;2023-01-01T04:26:54;98884.78;;;8.69;100.00
6413;BME280;3239;48.714;9.472;2023-01-01T04:29:20;98877.56;;;8.66;100.00
6413;BME280;3239;48.714;9.472;2023-01-01T04:31:46;98887.81;;;8.99;100.00
6413;BME280;3239;48.714;9.472;2023-01-01T04:34:12;98867.38;;;8.61;100.00
6413;BME280;3239;48.714;9.472;2023-01-01T04:36:38;98867.44;;;9.05;100.00
6413;BME280;3239;48.714;9.472;2023-01-01T04:39:04;98847.06;;;8.90;100.00
6413;BME280;3239;48.714;9.472;2023-01-01T04:41:31;98862.47;;;9.15;100.00
6413;BME280;3239;48.714;9.472;2023-01-01T04:43:57;98856.00;;;9.40;100.00
6413;BME280;3239;48.714;9.472;2023-01-01T04:46:23;98852.75;;;9.47;100.00
6413;BME280;3239;48.714;9.472;2023-01-01T04:48:49;98844.81;;;9.27;100.00
6413;BME280;3239;48.714;9.472;2023-01-01T04:51:17;98846.53;;;9.46;100.00
6413;BME280;3239;48.714;9.472;2023-01-01T04:53:44;98812.97;;;8.36;100.00
6413;BME280;3239;48.714;9.472;2023-01-01T04:56:13;98821.16;;;8.41;100.00
6413;BME280;3239;48.714;9.472;2023-01-01T04:58:41;98835.59;;;8.53;100.00
6413;BME280;3239;48.714;9.472;2023-01-01T05:01:14;98837.06;;;8.54;100.00
6413;BME280;3239;48.714;9.472;2023-01-01T05:03:40;98841.81;;;8.53;100.00
6413;BME280;3239;48.714;9.472;2023-01-01T05:06:09;98858.22;;;8.75;100.00
6413;BME280;3239;48.714;9.472;2023-01-01T05:08:38;98860.94;;;8.70;100.00
6413;BME280;3239;48.714;9.472;2023-01-01T05:11:18;98871.09;;;8.53;100.00
6413;BME280;3239;48.714;9.472;2023-01-01T05:13:47;98880.56;;;8.74;100.00
6413;BME280;3239;48.714;9.472;2023-01-01T05:16:22;98883.34;;;8.90;100.00
6413;BME280;3239;48.714;9.472;2023-01-01T05:18:49;98897.75;;;8.85;100.00
6413;BME280;3239;48.714;9.472;2023-01-01T05:21:21;98914.63;;;8.84;100.00
6413;BME280;3239;48.714;9.472;2023-01-01T05:23:48;98912.88;;;8.92;100.00
6413;BME280;3239;48.714;9.472;2023-01-01T05:26:20;98904.69;;;8.86;100.00
6413;BME280;3239;48.714;9.472;2023-01-01T05:28:47;98911.91;;;8.89;100.00
6413;BME280;3239;48.714;9.472;2023-01-01T05:31:22;98898.03;;;8.23;100.00
6413;BME280;3239;48.714;9.472;2023-01-01T05:33:49;98899.06;;;8.26;100.00
6413;BME280;3239;48.714;9.472;2023-01-01T05:36:23;98875.56;;;7.55;100.00
6413;BME280;3239;48.714;9.472;2023-01-01T05:38:50;98880.09;;;7.27;100.00
6413;BME280;3239;48.714;9.472;2023-01-01T05:41:17;98880.50;;;7.15;100.00
6413;BME280;3239;48.714;9.472;2023-01-01T05:43:44;98884.69;;;7.10;100.00
6413;BME280;3239;48.714;9.472;2023-01-01T05:46:25;98883.06;;;6.98;100.00
6413;BME280;3239;48.714;9.472;2023-01-01T05:48:52;98897.28;;;7.08;100.00
6413;BME280;3239;48.714;9.472;2023-01-01T05:51:24;98891.84;;;6.82;100.00
6413;BME280;3239;48.714;9.472;2023-01-01T05:53:52;98910.28;;;6.93;100.00
6413;BME280;3239;48.714;9.472;2023-01-01T05:56:18;98923.06;;;7.12;100.00
6413;BME280;3239;48.714;9.472;2023-01-01T05:58:44;98931.41;;;7.29;100.00
6413;BME280;3239;48.714;9.472;2023-01-01T06:01:18;98949.94;;;7.25;100.00
6413;BME280;3239;48.714;9.472;2023-01-01T06:03:44;98951.88;;;7.19;100.00
6413;BME280;3239;48.714;9.472;2023-01-01T06:06:14;98958.81;;;7.20;100.00
6413;BME280;3239;48.714;9.472;2023-01-01T06:08:40;98975.91;;;6.95;100.00
6413;BME280;3239;48.714;9.472;2023-01-01T06:11:10;98975.03;;;6.83;100.00
6413;BME280;3239;48.714;9.472;2023-01-01T06:13:36;98974.84;;;6.87;100.00
6413;BME280;3239;48.714;9.472;2023-01-01T06:16:03;98989.25;;;6.93;100.00
6413;BME280;3239;48.714;9.472;2023-01-01T06:18:32;98993.38;;;6.83;100.00
6413;BME280;3239;48.714;9.472;2023-01-01T06:21:17;98990.78;;;6.54;100.00
6413;BME280;3239;48.714;9.472;2023-01-01T06:23:43;98997.53;;;6.58;100.00
6413;BME280;3239;48.714;9.472;2023-01-01T06:26:17;99006.16;;;6.77;100.00
6413;BME280;3239;48.714;9.472;2023-01-01T06:28:44;99011.66;;;6.82;100.00
6413;BME280;3239;48.714;9.472;2023-01-01T06:31:14;99013.22;;;6.89;100.00
6413;BME280;3239;48.714;9.472;2023-01-01T06:33:40;99021.69;;;6.71;100.00
6413;BME280;3239;48.714;9.472;2023-01-01T06:36:09;99023.94;;;6.72;100.00
6413;BME280;3239;48.714;9.472;2023-01-01T06:38:38;99036.13;;;6.77;100.00
6413;BME280;3239;48.714;9.472;2023-01-01T06:41:09;99047.63;;;6.86;100.00
6413;BME280;3239;48.714;9.472;2023-01-01T06:43:35;99048.72;;;6.94;100.00
6413;BME280;3239;48.714;9.472;2023-01-01T06:48:32;99054.38;;;6.71;100.00
6413;BME280;3239;48.714;9.472;2023-01-01T06:51:15;99055.06;;;6.66;100.00
6413;BME280;3239;48.714;9.472;2023-01-01T06:53:41;99050.19;;;6.55;100.00
6413;BME280;3239;48.714;9.472;2023-01-01T06:56:07;99060.28;;;6.49;100.00
6413;BME280;3239;48.714;9.472;2023-01-01T06:58:33;99063.81;;;6.21;100.00
6413;BME280;3239;48.714;9.472;2023-01-01T07:01:21;99060.91;;;6.24;100.00
6413;BME280;3239;48.714;9.472;2023-01-01T07:03:54;99073.78;;;6.09;100.00
6413;BME280;3239;48.714;9.472;2023-01-01T07:06:20;99073.84;;;6.29;100.00
6413;BME280;3239;48.714;9.472;2023-01-01T07:08:46;99099.72;;;6.39;100.00
6413;BME280;3239;48.714;9.472;2023-01-01T07:11:12;99099.97;;;6.21;100.00
6413;BME280;3239;48.714;9.472;2023-01-01T07:13:38;99114.97;;;6.17;100.00
6413;BME280;3239;48.714;9.472;2023-01-01T07:16:04;99103.25;;;6.25;100.00
6413;BME280;3239;48.714;9.472;2023-01-01T07:18:31;99111.75;;;6.33;100.00
6413;BME280;3239;48.714;9.472;2023-01-01T07:21:02;99114.75;;;6.35;100.00
6413;BME280;3239;48.714;9.472;2023-01-01T07:23:31;99126.38;;;6.35;100.00
6413;BME280;3239;48.714;9.472;2023-01-01T07:25:58;99126.88;;;6.34;100.00
6413;BME280;3239;48.714;9.472;2023-01-01T07:28:24;99126.22;;;6.24;100.00
6413;BME280;3239;48.714;9.472;2023-01-01T07:30:50;99131.53;;;5.61;100.00
6413;BME280;3239;48.714;9.472;2023-01-01T07:33:22;99127.72;;;5.67;100.00
6413;BME280;3239;48.714;9.472;2023-01-01T07:35:48;99143.59;;;5.98;100.00
6413;BME280;3239;48.714;9.472;2023-01-01T07:38:15;99140.41;;;5.99;100.00
6413;BME280;3239;48.714;9.472;2023-01-01T07:40:41;99145.63;;;6.32;100.00
6413;BME280;3239;48.714;9.472;2023-01-01T07:43:08;99155.81;;;6.66;100.00
6413;BME280;3239;48.714;9.472;2023-01-01T07:45:34;99155.25;;;6.62;100.00
6413;BME280;3239;48.714;9.472;2023-01-01T07:48:01;99162.44;;;6.79;100.00
6413;BME280;3239;48.714;9.472;2023-01-01T07:50:30;99162.47;;;6.99;100.00
6413;BME280;3239;48.714;9.472;2023-01-01T07:52:56;99154.69;;;6.92;100.00
6413;BME280;3239;48.714;9.472;2023-01-01T07:55:22;99163.16;;;6.80;100.00
6413;BME280;3239;48.714;9.472;2023-01-01T07:57:48;99162.38;;;6.94;100.00
6413;BME280;3239;48.714;9.472;2023-01-01T08:00:17;99155.44;;;6.93;100.00
6413;BME280;3239;48.714;9.472;2023-01-01T08:02:44;99168.06;;;7.10;100.00
6413;BME280;3239;48.714;9.472;2023-01-01T08:05:10;99161.44;;;7.37;100.00
6413;BME280;3239;48.714;9.472;2023-01-01T08:07:37;99164.41;;;7.59;100.00
6413;BME280;3239;48.714;9.472;2023-01-01T08:10:07;99162.22;;;7.88;100.00
6413;BME280;3239;48.714;9.472;2023-01-01T08:12:33;99161.16;;;8.06;100.00
6413;BME280;3239;48.714;9.472;2023-01-01T08:14:58;99149.19;;;7.98;100.00
6413;BME280;3239;48.714;9.472;2023-01-01T08:17:24;99144.97;;;8.22;100.00
6413;BME280;3239;48.714;9.472;2023-01-01T08:19:50;99129.41;;;8.03;100.00
6413;BME280;3239;48.714;9.472;2023-01-01T08:22:17;99111.56;;;8.07;100.00
6413;BME280;3239;48.714;9.472;2023-01-01T08:24:42;99115.41;;;8.21;100.00
6413;BME280;3239;48.714;9.472;2023-01-01T08:27:14;99093.84;;;7.97;100.00
6413;BME280;3239;48.714;9.472;2023-01-01T08:29:41;99098.84;;;7.99;100.00
6413;BME280;3239;48.714;9.472;2023-01-01T08:32:07;99102.69;;;8.18;100.00
6413;BME280;3239;48.714;9.472;2023-01-01T08:34:33;99088.13;;;8.21;100.00
6413;BME280;3239;48.714;9.472;2023-01-01T08:36:59;99088.94;;;8.32;100.00
6413;BME280;3239;48.714;9.472;2023-01-01T08:39:25;99084.44;;;8.24;100.00
6413;BME280;3239;48.714;9.472;2023-01-01T08:41:51;99081.72;;;8.29;100.00
6413;BME280;3239;48.714;9.472;2023-01-01T08:44:16;99086.66;;;8.25;100.00
6413;BME280;3239;48.714;9.472;2023-01-01T08:46:42;99083.28;;;8.41;100.00
6413;BME280;3239;48.714;9.472;2023-01-01T08:49:08;99074.53;;;8.26;100.00
6413;BME280;3239;48.714;9.472;2023-01-01T08:51:33;99068.50;;;7.91;100.00
6413;BME280;3239;48.714;9.472;2023-01-01T08:53:59;99066.00;;;8.19;100.00
6413;BME280;3239;48.714;9.472;2023-01-01T08:56:25;99073.22;;;8.58;100.00
6413;BME280;3239;48.714;9.472;2023-01-01T08:58:50;99074.06;;;8.81;100.00
6413;BME280;3239;48.714;9.472;2023-01-01T09:01:17;99067.00;;;8.58;100.00
6413;BME280;3239;48.714;9.472;2023-01-01T09:03:47;99058.47;;;8.87;100.00
6413;BME280;3239;48.714;9.472;2023-01-01T09:06:13;99047.53;;;8.87;100.00
6413;BME280;3239;48.714;9.472;2023-01-01T09:08:39;99039.38;;;8.98;100.00
6413;BME280;3239;48.714;9.472;2023-01-01T09:11:05;99032.28;;;9.55;100.00
6413;BME280;3239;48.714;9.472;2023-01-01T09:13:32;99014.16;;;10.07;100.00
6413;BME280;3239;48.714;9.472;2023-01-01T09:15:58;99007.91;;;9.68;100.00
6413;BME280;3239;48.714;9.472;2023-01-01T09:18:24;98990.25;;;9.53;100.00
6413;BME280;3239;48.714;9.472;2023-01-01T09:20:50;98992.50;;;9.76;100.00
6413;BME280;3239;48.714;9.472;2023-01-01T09:23:16;98974.31;;;10.01;100.00
6413;BME280;3239;48.714;9.472;2023-01-01T09:25:41;98959.88;;;10.06;100.00
6413;BME280;3239;48.714;9.472;2023-01-01T09:28:11;98962.78;;;10.35;100.00
6413;BME280;3239;48.714;9.472;2023-01-01T09:30:38;98954.63;;;10.30;100.00
6413;BME280;3239;48.714;9.472;2023-01-01T09:33:03;98946.94;;;10.12;100.00
6413;BME280;3239;48.714;9.472;2023-01-01T09:35:30;98942.69;;;10.16;100.00
6413;BME280;3239;48.714;9.472;2023-01-01T09:37:56;98949.13;;;10.30;100.00
6413;BME280;3239;48.714;9.472;2023-01-01T09:40:54;98954.53;;;10.46;100.00
6413;BME280;3239;48.714;9.472;2023-01-01T09:46:10;98935.28;;;9.84;100.00
6413;BME280;3239;48.714;9.472;2023-01-01T09:48:47;98938.94;;;10.19;100.00
6413;BME280;3239;48.714;9.472;2023-01-01T09:51:17;98935.03;;;9.82;100.00
6413;BME280;3239;48.714;9.472;2023-01-01T09:54:00;98931.31;;;9.08;100.00
6413;BME280;3239;48.714;9.472;2023-01-01T09:56:30;98940.78;;;9.45;100.00
6413;BME280;3239;48.714;9.472;2023-01-01T09:58:59;98945.88;;;10.31;100.00
6413;BME280;3239;48.714;9.472;2023-01-01T10:04:49;98917.44;;;10.91;100.00
6413;BME280;3239;48.714;9.472;2023-01-01T10:07:46;98902.69;;;11.35;100.00
6413;BME280;3239;48.714;9.472;2023-01-01T10:13:37;98875.13;;;11.75;100.00
6413;BME280;3239;48.714;9.472;2023-01-01T10:18:57;98849.69;;;12.17;100.00
6413;BME280;3239;48.714;9.472;2023-01-01T10:21:35;98833.69;;;12.90;100.00
6413;BME280;3239;48.714;9.472;2023-01-01T10:24:22;98821.59;;;13.56;100.00
6413;BME280;3239;48.714;9.472;2023-01-01T10:26:53;98818.06;;;13.29;100.00
6413;BME280;3239;48.714;9.472;2023-01-01T10:29:41;98824.69;;;12.89;100.00
6413;BME280;3239;48.714;9.472;2023-01-01T10:32:20;98813.44;;;13.63;100.00
6413;BME280;3239;48.714;9.472;2023-01-01T10:34:47;98815.19;;;13.35;100.00
6413;BME280;3239;48.714;9.472;2023-01-01T10:37:13;98811.44;;;13.64;100.00
6413;BME280;3239;48.714;9.472;2023-01-01T10:39:40;98808.13;;;14.04;100.00
6413;BME280;3239;48.714;9.472;2023-01-01T10:42:11;98791.75;;;13.02;100.00
6413;BME280;3239;48.714;9.472;2023-01-01T10:44:37;98817.72;;;13.20;100.00
6413;BME280;3239;48.714;9.472;2023-01-01T10:47:27;98808.78;;;14.23;100.00
6413;BME280;3239;48.714;9.472;2023-01-01T10:49:59;98810.03;;;14.09;100.00
6413;BME280;3239;48.714;9.472;2023-01-01T10:52:38;98802.41;;;15.03;100.00
6413;BME280;3239;48.714;9.472;2023-01-01T10:55:25;98773.69;;;14.98;100.00
6413;BME280;3239;48.714;9.472;2023-01-01T10:57:52;98763.78;;;15.03;100.00
6413;BME280;3239;48.714;9.472;2023-01-01T11:03:20;98763.75;;;15.79;100.00
6413;BME280;3239;48.714;9.472;2023-01-01T11:08:37;98745.69;;;17.39;100.00
6413;BME280;3239;48.714;9.472;2023-01-01T11:11:03;98739.63;;;17.88;100.00
6413;BME280;3239;48.714;9.472;2023-01-01T11:13:30;98725.47;;;17.76;100.00
6413;BME280;3239;48.714;9.472;2023-01-01T11:15:58;98731.28;;;17.95;100.00
6413;BME280;3239;48.714;9.472;2023-01-01T11:18:31;98727.38;;;18.06;100.00
6413;BME280;3239;48.714;9.472;2023-01-01T11:21:03;98719.06;;;19.36;100.00
6413;BME280;3239;48.714;9.472;2023-01-01T11:23:32;98720.63;;;17.77;100.00
6413;BME280;3239;48.714;9.472;2023-01-01T11:26:02;98709.28;;;19.10;100.00
6413;BME280;3239;48.714;9.472;2023-01-01T11:28:29;98693.28;;;20.03;100.00
6413;BME280;3239;48.714;9.472;2023-01-01T11:31:13;98680.28;;;21.04;100.00
6413;BME280;3239;48.714;9.472;2023-01-01T11:33:50;98669.78;;;21.69;100.00
6413;BME280;3239;48.714;9.472;2023-01-01T11:36:28;98668.84;;;22.14;100.00
6413;BME280;3239;48.714;9.472;2023-01-01T11:39:25;98669.72;;;20.31;100.00
6413;BME280;3239;48.714;9.472;2023-01-01T11:41:55;98678.31;;;21.81;100.00
6413;BME280;3239;48.714;9.472;2023-01-01T11:44:43;98656.03;;;23.22;83.18
6413;BME280;3239;48.714;9.472;2023-01-01T11:47:38;98649.19;;;24.55;65.91
6413;BME280;3239;48.714;9.472;2023-01-01T11:52:45;98644.00;;;23.73;74.48
6413;BME280;3239;48.714;9.472;2023-01-01T12:00:36;98630.44;;;23.90;75.42
6413;BME280;3239;48.714;9.472;2023-01-01T12:08:30;98617.28;;;23.49;73.88
6413;BME280;3239;48.714;9.472;2023-01-01T12:11:13;98597.56;;;26.56;61.34
6413;BME280;3239;48.714;9.472;2023-01-01T12:13:56;98599.81;;;27.56;49.63
6413;BME280;3239;48.714;9.472;2023-01-01T12:19:09;98601.75;;;22.73;75.01
6413;BME280;3239;48.714;9.472;2023-01-01T12:21:38;98601.22;;;21.57;100.00
6413;BME280;3239;48.714;9.472;2023-01-01T12:24:11;98595.78;;;24.87;81.75
6413;BME280;3239;48.714;9.472;2023-01-01T12:33:01;98573.56;;;28.91;46.32
6413;BME280;3239;48.714;9.472;2023-01-01T12:39:27;98569.19;;;29.03;37.35
6413;BME280;3239;48.714;9.472;2023-01-01T12:47:50;98577.38;;;29.83;38.90
6413;BME280;3239;48.714;9.472;2023-01-01T12:56:17;98560.28;;;31.15;33.49
6413;BME280;3239;48.714;9.472;2023-01-01T12:59:06;98557.38;;;30.92;32.93
6413;BME280;3239;48.714;9.472;2023-01-01T13:01:36;98559.16;;;29.51;35.31
6413;BME280;3239;48.714;9.472;2023-01-01T13:04:08;98557.28;;;29.40;37.63
6413;BME280;3239;48.714;9.472;2023-01-01T13:06:56;98558.47;;;28.20;38.31
6413;BME280;3239;48.714;9.472;2023-01-01T13:09:43;98556.19;;;27.28;42.39
6413;BME280;3239;48.714;9.472;2023-01-01T13:12:11;98553.25;;;23.11;55.25
6413;BME280;3239;48.714;9.472;2023-01-01T13:14:41;98550.44;;;26.02;48.91
6413;BME280;3239;48.714;9.472;2023-01-01T13:17:26;98550.16;;;26.50;42.51
6413;BME280;3239;48.714;9.472;2023-01-01T13:19:59;98547.72;;;26.99;41.98
6413;BME280;3239;48.714;9.472;2023-01-01T13:22:40;98542.72;;;28.62;37.94
6413;BME280;3239;48.714;9.472;2023-01-01T13:38:51;98538.06;;;29.89;31.70
6413;BME280;3239;48.714;9.472;2023-01-01T13:41:30;98536.44;;;30.21;31.96
6413;BME280;3239;48.714;9.472;2023-01-01T13:58:21;98527.66;;;27.93;36.64
6413;BME280;3239;48.714;9.472;2023-01-01T14:03:52;98528.53;;;27.22;39.64
6413;BME280;3239;48.714;9.472;2023-01-01T14:06:38;98521.22;;;26.48;40.01
6413;BME280;3239;48.714;9.472;2023-01-01T14:09:12;98518.09;;;24.42;46.13
6413;BME280;3239;48.714;9.472;2023-01-01T14:11:39;98507.19;;;24.23;47.68
6413;BME280;3239;48.714;9.472;2023-01-01T14:14:25;98511.91;;;23.30;51.12
6413;BME280;3239;48.714;9.472;2023-01-01T14:17:01;98509.44;;;23.69;49.72
6413;BME280;3239;48.714;9.472;2023-01-01T14:19:31;98506.94;;;23.40;55.81
6413;BME280;3239;48.714;9.472;2023-01-01T14:21:57;98508.03;;;24.02;52.93
6413;BME280;3239;48.714;9.472;2023-01-01T14:24:24;98496.84;;;24.02;51.60
6413;BME280;3239;48.714;9.472;2023-01-01T14:26:51;98500.59;;;22.75;59.32
6413;BME280;3239;48.714;9.472;2023-01-01T14:29:28;98496.16;;;23.14;56.22
6413;BME280;3239;48.714;9.472;2023-01-01T14:31:58;98500.09;;;23.20;55.86
6413;BME280;3239;48.714;9.472;2023-01-01T14:34:31;98507.00;;;22.98;53.66
6413;BME280;3239;48.714;9.472;2023-01-01T14:37:02;98499.75;;;23.37;52.25
6413;BME280;3239;48.714;9.472;2023-01-01T14:39:34;98501.28;;;23.17;52.74
6413;BME280;3239;48.714;9.472;2023-01-01T14:42:15;98500.31;;;23.24;50.85
6413;BME280;3239;48.714;9.472;2023-01-01T14:44:44;98503.47;;;22.35;54.20
6413;BME280;3239;48.714;9.472;2023-01-01T14:47:32;98504.16;;;21.25;62.00
6413;BME280;3239;48.714;9.472;2023-01-01T14:50:24;98512.63;;;21.46;64.99
6413;BME280;3239;48.714;9.472;2023-01-01T14:53:04;98517.44;;;21.45;67.72
6413;BME280;3239;48.714;9.472;2023-01-01T14:55:41;98507.22;;;21.29;67.91
6413;BME280;3239;48.714;9.472;2023-01-01T14:58:24;98512.78;;;21.38;73.84
6413;BME280;3239;48.714;9.472;2023-01-01T15:00:51;98520.00;;;21.22;89.52
6413;BME280;3239;48.714;9.472;2023-01-01T15:03:19;98518.97;;;21.08;94.08
6413;BME280;3239;48.714;9.472;2023-01-01T15:06:02;98519.75;;;20.35;100.00
6413;BME280;3239;48.714;9.472;2023-01-01T15:08:28;98521.38;;;20.38;100.00
6413;BME280;3239;48.714;9.472;2023-01-01T15:10:54;98516.06;;;20.23;100.00
6413;BME280;3239;48.714;9.472;2023-01-01T15:13:24;98514.88;;;19.54;100.00
6413;BME280;3239;48.714;9.472;2023-01-01T15:15:53;98511.22;;;19.34;100.00
6413;BME280;3239;48.714;9.472;2023-01-01T15:18:44;98510.69;;;18.34;100.00
6413;BME280;3239;48.714;9.472;2023-01-01T15:24:18;98522.53;;;17.78;100.00
6413;BME280;3239;48.714;9.472;2023-01-01T15:26:55;98520.88;;;17.50;100.00
6413;BME280;3239;48.714;9.472;2023-01-01T15:32:02;98534.84;;;16.58;100.00
6413;BME280;3239;48.714;9.472;2023-01-01T15:34:50;98530.78;;;16.14;100.00
6413;BME280;3239;48.714;9.472;2023-01-01T15:37:35;98549.00;;;15.72;100.00
6413;BME280;3239;48.714;9.472;2023-01-01T15:42:41;98549.13;;;15.09;100.00
6413;BME280;3239;48.714;9.472;2023-01-01T15:48:18;98556.75;;;14.60;100.00
6413;BME280;3239;48.714;9.472;2023-01-01T15:51:11;98574.34;;;14.29;100.00
6413;BME280;3239;48.714;9.472;2023-01-01T15:54:04;98583.41;;;14.16;100.00
6413;BME280;3239;48.714;9.472;2023-01-01T15:56:32;98583.75;;;14.13;100.00
6413;BME280;3239;48.714;9.472;2023-01-01T15:59:04;98585.97;;;13.94;100.00